sensor_id;sensor_type;location;lat;lon;timestamp;pressure;altitude;pressure_sealevel;temperature;humidity
46291;BME280;32023;44.444;26.006;2022-09-28T00:01:34;99084.00;;;13.28;100.00
46291;BME280;32023;44.444;26.006;2022-09-28T00:04:00;99092.28;;;13.28;100.00
46291;BME280;32023;44.444;26.006;2022-09-28T00:06:30;99096.16;;;13.27;100.00
46291;BME280;32023;44.444;26.006;2022-09-28T00:09:06;99086.34;;;13.21;99.99
46291;BME280;32023;44.444;26.006;2022-09-28T00:11:33;99094.31;;;13.23;100.00
46291;BME280;32023;44.444;26.006;2022-09-28T00:14:01;99088.78;;;13.23;100.00
46291;BME280;32023;44.444;26.006;2022-09-28T00:16:34;99086.16;;;13.18;100.00
46291;BME280;32023;44.444;26.006;2022-09-28T00:19:02;99087.56;;;13.15;100.00
46291;BME280;32023;44.444;26.006;2022-09-28T00:21:30;99089.00;;;13.13;100.00
46291;BME280;32023;44.444;26.006;2022-09-28T00:23:59;99094.31;;;13.09;100.00
46291;BME280;32023;44.444;26.006;2022-09-28T00:26:55;99087.13;;;13.08;100.00
46291;BME280;32023;44.444;26.006;2022-09-28T00:29:31;99079.75;;;13.03;100.00
46291;BME280;32023;44.444;26.006;2022-09-28T00:32:00;99080.16;;;12.97;100.00
46291;BME280;32023;44.444;26.006;2022-09-28T00:34:32;99075.75;;;12.96;100.00
46291;BME280;32023;44.444;26.006;2022-09-28T00:37:06;99066.97;;;12.94;100.00
46291;BME280;32023;44.444;26.006;2022-09-28T00:39:34;99073.41;;;12.89;100.00
46291;BME280;32023;44.444;26.006;2022-09-28T00:42:11;99076.47;;;12.88;100.00
46291;BME280;32023;44.444;26.006;2022-09-28T00:44:42;99066.25;;;12.88;100.00
46291;BME280;32023;44.444;26.006;2022-09-28T00:50:35;99066.66;;;12.82;100.00
46291;BME280;32023;44.444;26.006;2022-09-28T00:53:18;99065.00;;;12.81;100.00
46291;BME280;32023;44.444;26.006;2022-09-28T00:55:47;99062.16;;;12.72;100.00
46291;BME280;32023;44.444;26.006;2022-09-28T00:58:22;99069.50;;;12.77;100.00
46291;BME280;32023;44.444;26.006;2022-09-28T01:00:55;99072.81;;;12.79;100.00
46291;BME280;32023;44.444;26.006;2022-09-28T01:03:28;99074.44;;;12.80;100.00
46291;BME280;32023;44.444;26.006;2022-09-28T01:05:58;99073.31;;;12.81;100.00
46291;BME280;32023;44.444;26.006;2022-09-28T01:08:29;99078.81;;;12.81;100.00
46291;BME280;32023;44.444;26.006;2022-09-28T01:11:00;99085.50;;;12.80;100.00
46291;BME280;32023;44.444;26.006;2022-09-28T01:13:31;99081.38;;;12.77;100.00
46291;BME280;32023;44.444;26.006;2022-09-28T01:18:58;99083.66;;;12.75;100.00
46291;BME280;32023;44.444;26.006;2022-09-28T01:21:33;99092.84;;;12.71;100.00
46291;BME280;32023;44.444;26.006;2022-09-28T01:24:41;99074.63;;;12.70;100.00
46291;BME280;32023;44.444;26.006;2022-09-28T01:27:16;99082.09;;;12.69;100.00
46291;BME280;32023;44.444;26.006;2022-09-28T01:30:00;99083.22;;;12.68;100.00
46291;BME280;32023;44.444;26.006;2022-09-28T01:32:31;99084.22;;;12.59;100.00
46291;BME280;32023;44.444;26.006;2022-09-28T01:38:20;99079.94;;;12.66;100.00
46291;BME280;32023;44.444;26.006;2022-09-28T01:40:48;99084.63;;;12.66;100.00
46291;BME280;32023;44.444;26.006;2022-09-28T01:43:25;99077.72;;;12.68;100.00
46291;BME280;32023;44.444;26.006;2022-09-28T01:46:05;99095.69;;;12.66;100.00
46291;BME280;32023;44.444;26.006;2022-09-28T01:51:13;99094.06;;;12.65;100.00
46291;BME280;32023;44.444;26.006;2022-09-28T01:53:58;99104.09;;;12.61;100.00
46291;BME280;32023;44.444;26.006;2022-09-28T01:56:35;99105.69;;;12.62;100.00
46291;BME280;32023;44.444;26.006;2022-09-28T01:59:14;99111.53;;;12.60;100.00
46291;BME280;32023;44.444;26.006;2022-09-28T02:04:39;99112.44;;;12.55;100.00
46291;BME280;32023;44.444;26.006;2022-09-28T02:07:14;99113.06;;;12.52;100.00
46291;BME280;32023;44.444;26.006;2022-09-28T02:09:49;99121.34;;;12.52;100.00
46291;BME280;32023;44.444;26.006;2022-09-28T02:12:36;99122.53;;;12.46;100.00
46291;BME280;32023;44.444;26.006;2022-09-28T02:15:23;99124.78;;;12.44;100.00
46291;BME280;32023;44.444;26.006;2022-09-28T02:17:54;99132.03;;;12.40;100.00
46291;BME280;32023;44.444;26.006;2022-09-28T02:20:23;99123.75;;;12.40;100.00
46291;BME280;32023;44.444;26.006;2022-09-28T02:22:54;99134.88;;;12.35;100.00
46291;BME280;32023;44.444;26.006;2022-09-28T02:28:11;99132.44;;;12.34;100.00
46291;BME280;32023;44.444;26.006;2022-09-28T02:30:40;99137.41;;;12.32;100.00
46291;BME280;32023;44.444;26.006;2022-09-28T02:33:41;99130.34;;;12.26;100.00
46291;BME280;32023;44.444;26.006;2022-09-28T02:36:16;99130.84;;;12.28;100.00
46291;BME280;32023;44.444;26.006;2022-09-28T02:38:46;99128.09;;;12.28;100.00
46291;BME280;32023;44.444;26.006;2022-09-28T02:44:09;99132.22;;;12.30;100.00
46291;BME280;32023;44.444;26.006;2022-09-28T02:46:49;99130.19;;;12.36;100.00
46291;BME280;32023;44.444;26.006;2022-09-28T02:50:09;99126.09;;;12.33;100.00
46291;BME280;32023;44.444;26.006;2022-09-28T03:01:31;99125.81;;;12.16;100.00
46291;BME280;32023;44.444;26.006;2022-09-28T03:04:27;99119.16;;;12.17;100.00
46291;BME280;32023;44.444;26.006;2022-09-28T03:09:44;99119.13;;;12.03;100.00
46291;BME280;32023;44.444;26.006;2022-09-28T03:12:16;99132.16;;;11.98;100.00
46291;BME280;32023;44.444;26.006;2022-09-28T03:14:45;99136.06;;;11.97;100.00
46291;BME280;32023;44.444;26.006;2022-09-28T03:17:19;99139.72;;;11.92;100.00
46291;BME280;32023;44.444;26.006;2022-09-28T03:19:46;99136.72;;;11.89;100.00
46291;BME280;32023;44.444;26.006;2022-09-28T03:22:15;99143.66;;;11.86;100.00
46291;BME280;32023;44.444;26.006;2022-09-28T03:24:51;99147.31;;;11.82;100.00
46291;BME280;32023;44.444;26.006;2022-09-28T03:27:18;99151.19;;;11.81;100.00
46291;BME280;32023;44.444;26.006;2022-09-28T03:29:49;99152.84;;;11.82;100.00
46291;BME280;32023;44.444;26.006;2022-09-28T03:32:25;99149.75;;;11.83;100.00
46291;BME280;32023;44.444;26.006;2022-09-28T03:34:59;99140.06;;;11.86;100.00
46291;BME280;32023;44.444;26.006;2022-09-28T03:37:26;99138.44;;;11.85;100.00
46291;BME280;32023;44.444;26.006;2022-09-28T03:39:53;99147.75;;;11.89;100.00
46291;BME280;32023;44.444;26.006;2022-09-28T03:42:19;99141.44;;;11.88;100.00
46291;BME280;32023;44.444;26.006;2022-09-28T03:44:46;99149.38;;;11.90;100.00
46291;BME280;32023;44.444;26.006;2022-09-28T03:47:18;99149.16;;;11.86;100.00
46291;BME280;32023;44.444;26.006;2022-09-28T03:49:45;99157.22;;;11.83;100.00
46291;BME280;32023;44.444;26.006;2022-09-28T03:52:12;99155.38;;;11.78;100.00
46291;BME280;32023;44.444;26.006;2022-09-28T03:55:02;99172.81;;;11.74;100.00
46291;BME280;32023;44.444;26.006;2022-09-28T03:57:28;99171.72;;;11.70;100.00
46291;BME280;32023;44.444;26.006;2022-09-28T03:59:55;99173.94;;;11.68;100.00
46291;BME280;32023;44.444;26.006;2022-09-28T04:02:24;99178.06;;;11.70;100.00
46291;BME280;32023;44.444;26.006;2022-09-28T04:05:01;99165.16;;;11.66;100.00
46291;BME280;32023;44.444;26.006;2022-09-28T04:07:27;99172.88;;;11.64;100.00
46291;BME280;32023;44.444;26.006;2022-09-28T04:09:53;99176.78;;;11.63;100.00
46291;BME280;32023;44.444;26.006;2022-09-28T04:12:20;99176.78;;;11.63;100.00
46291;BME280;32023;44.444;26.006;2022-09-28T04:14:46;99176.47;;;11.64;100.00
46291;BME280;32023;44.444;26.006;2022-09-28T04:17:12;99168.41;;;11.68;100.00
46291;BME280;32023;44.444;26.006;2022-09-28T04:19:39;99170.91;;;11.69;100.00
46291;BME280;32023;44.444;26.006;2022-09-28T04:22:06;99173.38;;;11.71;100.00
46291;BME280;32023;44.444;26.006;2022-09-28T04:24:32;99166.22;;;11.70;100.00
46291;BME280;32023;44.444;26.006;2022-09-28T04:26:58;99173.84;;;11.78;100.00
46291;BME280;32023;44.444;26.006;2022-09-28T04:29:44;99170.78;;;11.79;100.00
46291;BME280;32023;44.444;26.006;2022-09-28T04:32:14;99167.19;;;11.79;100.00
46291;BME280;32023;44.444;26.006;2022-09-28T04:34:45;99169.44;;;11.77;100.00
46291;BME280;32023;44.444;26.006;2022-09-28T04:37:12;99174.91;;;11.82;100.00
46291;BME280;32023;44.444;26.006;2022-09-28T04:39:41;99176.75;;;11.86;100.00
46291;BME280;32023;44.444;26.006;2022-09-28T04:42:10;99179.22;;;11.88;100.00
46291;BME280;32023;44.444;26.006;2022-09-28T04:44:37;99183.31;;;11.90;100.00
46291;BME280;32023;44.444;26.006;2022-09-28T04:47:03;99182.97;;;11.97;100.00
46291;BME280;32023;44.444;26.006;2022-09-28T04:49:30;99187.88;;;12.00;100.00
46291;BME280;32023;44.444;26.006;2022-09-28T04:51:59;99180.13;;;12.02;100.00
46291;BME280;32023;44.444;26.006;2022-09-28T04:54:29;99178.19;;;12.02;100.00
46291;BME280;32023;44.444;26.006;2022-09-28T04:57:04;99190.47;;;12.10;100.00
46291;BME280;32023;44.444;26.006;2022-09-28T04:59:34;99196.28;;;12.08;100.00
46291;BME280;32023;44.444;26.006;2022-09-28T05:02:05;99197.94;;;12.10;100.00
46291;BME280;32023;44.444;26.006;2022-09-28T05:04:31;99194.06;;;12.11;100.00
46291;BME280;32023;44.444;26.006;2022-09-28T05:06:58;99197.34;;;12.13;99.76
46291;BME280;32023;44.444;26.006;2022-09-28T05:09:28;99212.56;;;12.10;99.49
46291;BME280;32023;44.444;26.006;2022-09-28T05:12:02;99218.69;;;12.07;99.73
46291;BME280;32023;44.444;26.006;2022-09-28T05:14:29;99223.22;;;11.98;100.00
46291;BME280;32023;44.444;26.006;2022-09-28T05:17:09;99227.56;;;12.04;100.00
46291;BME280;32023;44.444;26.006;2022-09-28T05:19:39;99237.00;;;11.98;100.00
46291;BME280;32023;44.444;26.006;2022-09-28T05:22:09;99236.66;;;12.04;100.00
46291;BME280;32023;44.444;26.006;2022-09-28T05:24:46;99238.06;;;12.02;100.00
46291;BME280;32023;44.444;26.006;2022-09-28T05:27:22;99244.34;;;12.07;100.00
46291;BME280;32023;44.444;26.006;2022-09-28T05:29:49;99241.19;;;12.14;100.00
46291;BME280;32023;44.444;26.006;2022-09-28T05:32:18;99240.53;;;12.22;100.00
46291;BME280;32023;44.444;26.006;2022-09-28T05:34:44;99233.91;;;12.23;100.00
46291;BME280;32023;44.444;26.006;2022-09-28T05:37:11;99231.00;;;12.33;100.00
46291;BME280;32023;44.444;26.006;2022-09-28T05:39:49;99240.59;;;12.36;100.00
46291;BME280;32023;44.444;26.006;2022-09-28T05:42:21;99236.13;;;12.40;100.00
46291;BME280;32023;44.444;26.006;2022-09-28T05:44:50;99237.72;;;12.46;100.00
46291;BME280;32023;44.444;26.006;2022-09-28T05:47:17;99241.13;;;12.57;100.00
46291;BME280;32023;44.444;26.006;2022-09-28T05:49:43;99237.28;;;12.71;100.00
46291;BME280;32023;44.444;26.006;2022-09-28T05:52:10;99241.94;;;12.76;99.40
46291;BME280;32023;44.444;26.006;2022-09-28T05:54:36;99236.91;;;12.78;98.70
46291;BME280;32023;44.444;26.006;2022-09-28T05:57:04;99246.03;;;12.92;98.54
46291;BME280;32023;44.444;26.006;2022-09-28T05:59:39;99241.78;;;12.99;98.03
46291;BME280;32023;44.444;26.006;2022-09-28T06:02:12;99241.41;;;13.06;96.44
46291;BME280;32023;44.444;26.006;2022-09-28T06:04:39;99248.91;;;13.19;96.56
46291;BME280;32023;44.444;26.006;2022-09-28T06:07:14;99242.50;;;13.37;95.73
46291;BME280;32023;44.444;26.006;2022-09-28T06:09:48;99247.03;;;13.47;93.54
46291;BME280;32023;44.444;26.006;2022-09-28T06:12:15;99241.28;;;13.57;92.32
46291;BME280;32023;44.444;26.006;2022-09-28T06:14:41;99241.81;;;13.73;91.53
46291;BME280;32023;44.444;26.006;2022-09-28T06:17:09;99245.28;;;13.92;90.70
46291;BME280;32023;44.444;26.006;2022-09-28T06:19:35;99245.06;;;14.02;89.12
46291;BME280;32023;44.444;26.006;2022-09-28T06:22:09;99238.16;;;14.13;88.85
46291;BME280;32023;44.444;26.006;2022-09-28T06:24:35;99242.66;;;14.36;87.24
46291;BME280;32023;44.444;26.006;2022-09-28T06:27:02;99246.81;;;14.48;86.01
46291;BME280;32023;44.444;26.006;2022-09-28T06:29:28;99251.91;;;14.68;85.21
46291;BME280;32023;44.444;26.006;2022-09-28T06:31:55;99252.19;;;14.88;84.41
46291;BME280;32023;44.444;26.006;2022-09-28T06:34:24;99247.44;;;15.03;84.03
46291;BME280;32023;44.444;26.006;2022-09-28T06:36:51;99258.63;;;15.20;82.93
46291;BME280;32023;44.444;26.006;2022-09-28T06:39:17;99255.97;;;15.46;82.09
46291;BME280;32023;44.444;26.006;2022-09-28T06:41:44;99255.63;;;15.69;80.98
46291;BME280;32023;44.444;26.006;2022-09-28T06:44:13;99260.78;;;15.93;80.85
46291;BME280;32023;44.444;26.006;2022-09-28T06:46:39;99268.03;;;16.11;79.55
46291;BME280;32023;44.444;26.006;2022-09-28T06:49:06;99262.66;;;16.32;78.31
46291;BME280;32023;44.444;26.006;2022-09-28T06:51:39;99254.53;;;16.53;77.48
46291;BME280;32023;44.444;26.006;2022-09-28T06:54:34;99254.88;;;16.60;76.21
46291;BME280;32023;44.444;26.006;2022-09-28T06:58:03;99251.78;;;16.78;75.11
46291;BME280;32023;44.444;26.006;2022-09-28T07:00:55;99251.06;;;17.24;74.04
46291;BME280;32023;44.444;26.006;2022-09-28T07:03:35;99261.63;;;17.57;72.06
46291;BME280;32023;44.444;26.006;2022-09-28T07:06:51;99259.84;;;17.90;70.51
46291;BME280;32023;44.444;26.006;2022-09-28T07:10:02;99263.34;;;18.16;68.38
46291;BME280;32023;44.444;26.006;2022-09-28T08:27:18;99303.28;;;22.45;52.54
46291;BME280;32023;44.444;26.006;2022-09-28T08:33:18;99301.47;;;22.87;51.48
46291;BME280;32023;44.444;26.006;2022-09-28T08:36:02;99295.50;;;23.08;50.82
46291;BME280;32023;44.444;26.006;2022-09-28T08:38:59;99306.09;;;23.34;50.65
46291;BME280;32023;44.444;26.006;2022-09-28T08:41:59;99278.72;;;23.12;50.60
46291;BME280;32023;44.444;26.006;2022-09-28T08:44:53;99302.25;;;23.84;49.76
46291;BME280;32023;44.444;26.006;2022-09-28T08:57:43;99281.91;;;24.62;45.49
46291;BME280;32023;44.444;26.006;2022-09-28T09:00:57;99284.31;;;24.90;46.02
46291;BME280;32023;44.444;26.006;2022-09-28T09:12:51;99270.94;;;25.47;42.89
46291;BME280;32023;44.444;26.006;2022-09-28T09:20:58;99268.34;;;26.08;42.03
46291;BME280;32023;44.444;26.006;2022-09-28T09:23:58;99282.75;;;26.40;41.11
46291;BME280;32023;44.444;26.006;2022-09-28T09:26:40;99267.97;;;26.57;40.54
46291;BME280;32023;44.444;26.006;2022-09-28T09:41:03;99266.88;;;27.84;36.97
46291;BME280;32023;44.444;26.006;2022-09-28T09:47:04;99258.34;;;28.97;35.22
46291;BME280;32023;44.444;26.006;2022-09-28T09:49:42;99264.13;;;29.70;33.58
46291;BME280;32023;44.444;26.006;2022-09-28T09:52:20;99253.84;;;30.41;31.91
46291;BME280;32023;44.444;26.006;2022-09-28T09:58:09;99258.94;;;32.69;28.57
46291;BME280;32023;44.444;26.006;2022-09-28T10:00:45;99257.47;;;33.96;26.55
46291;BME280;32023;44.444;26.006;2022-09-28T10:03:35;99255.13;;;34.59;25.25
46291;BME280;32023;44.444;26.006;2022-09-28T10:06:21;99247.13;;;35.11;24.65
46291;BME280;32023;44.444;26.006;2022-09-28T10:09:08;99244.81;;;36.14;23.51
46291;BME280;32023;44.444;26.006;2022-09-28T10:11:54;99234.44;;;36.42;23.47
46291;BME280;32023;44.444;26.006;2022-09-28T10:14:24;99239.91;;;37.40;22.11
46291;BME280;32023;44.444;26.006;2022-09-28T10:16:52;99236.22;;;37.08;21.78
46291;BME280;32023;44.444;26.006;2022-09-28T10:19:32;99240.75;;;37.71;21.44
46291;BME280;32023;44.444;26.006;2022-09-28T10:25:23;99248.59;;;37.71;21.08
46291;BME280;32023;44.444;26.006;2022-09-28T10:38:22;99237.47;;;39.85;18.49
46291;BME280;32023;44.444;26.006;2022-09-28T10:41:08;99236.97;;;39.36;19.09
46291;BME280;32023;44.444;26.006;2022-09-28T10:43:53;99234.50;;;39.62;18.78
46291;BME280;32023;44.444;26.006;2022-09-28T10:46:43;99239.69;;;41.04;16.92
46291;BME280;32023;44.444;26.006;2022-09-28T10:52:39;99242.16;;;40.72;17.91
46291;BME280;32023;44.444;26.006;2022-09-28T10:55:28;99249.78;;;39.35;18.34
46291;BME280;32023;44.444;26.006;2022-09-28T11:01:33;99242.75;;;39.09;18.72
46291;BME280;32023;44.444;26.006;2022-09-28T11:07:48;99248.69;;;39.05;18.41
46291;BME280;32023;44.444;26.006;2022-09-28T11:13:25;99234.16;;;37.40;19.92
46291;BME280;32023;44.444;26.006;2022-09-28T11:16:02;99229.63;;;38.71;18.64
46291;BME280;32023;44.444;26.006;2022-09-28T11:18:42;99219.22;;;38.06;18.01
46291;BME280;32023;44.444;26.006;2022-09-28T11:21:23;99218.88;;;37.43;18.63
46291;BME280;32023;44.444;26.006;2022-09-28T11:24:20;99217.31;;;38.13;17.95
46291;BME280;32023;44.444;26.006;2022-09-28T11:26:54;99223.47;;;38.42;17.84
46291;BME280;32023;44.444;26.006;2022-09-28T11:29:42;99219.38;;;38.12;18.20
46291;BME280;32023;44.444;26.006;2022-09-28T11:32:14;99216.56;;;38.30;18.47
46291;BME280;32023;44.444;26.006;2022-09-28T11:34:48;99218.09;;;38.80;17.58
46291;BME280;32023;44.444;26.006;2022-09-28T11:37:49;99216.34;;;38.16;17.79
46291;BME280;32023;44.444;26.006;2022-09-28T11:43:50;99216.94;;;37.40;18.79
46291;BME280;32023;44.444;26.006;2022-09-28T11:49:52;99198.78;;;36.99;19.31
46291;BME280;32023;44.444;26.006;2022-09-28T11:52:44;99203.50;;;36.25;20.15
46291;BME280;32023;44.444;26.006;2022-09-28T12:02:14;99201.53;;;32.87;23.18
46291;BME280;32023;44.444;26.006;2022-09-28T12:21:05;99163.22;;;30.88;25.68
46291;BME280;32023;44.444;26.006;2022-09-28T12:30:42;99204.09;;;29.75;28.18
46291;BME280;32023;44.444;26.006;2022-09-28T12:33:17;99201.19;;;29.82;27.60
46291;BME280;32023;44.444;26.006;2022-09-28T12:36:47;99195.94;;;29.77;28.21
46291;BME280;32023;44.444;26.006;2022-09-28T12:56:18;99186.25;;;29.01;28.72
46291;BME280;32023;44.444;26.006;2022-09-28T13:40:10;99202.22;;;27.71;30.86
46291;BME280;32023;44.444;26.006;2022-09-28T13:50:09;99217.91;;;27.37;31.54
46291;BME280;32023;44.444;26.006;2022-09-28T14:09:40;99224.19;;;26.88;32.35
46291;BME280;32023;44.444;26.006;2022-09-28T14:19:39;99234.94;;;26.72;32.83
46291;BME280;32023;44.444;26.006;2022-09-28T14:31:47;99244.28;;;26.21;33.52
46291;BME280;32023;44.444;26.006;2022-09-28T14:34:43;99237.63;;;26.00;34.17
46291;BME280;32023;44.444;26.006;2022-09-28T14:37:38;99260.16;;;25.93;34.46
46291;BME280;32023;44.444;26.006;2022-09-28T14:40:35;99253.13;;;25.76;34.75
46291;BME280;32023;44.444;26.006;2022-09-28T14:43:36;99238.13;;;25.65;34.72
46291;BME280;32023;44.444;26.006;2022-09-28T14:46:32;99241.59;;;25.51;34.52
46291;BME280;32023;44.444;26.006;2022-09-28T14:57:57;99246.81;;;25.49;35.46
46291;BME280;32023;44.444;26.006;2022-09-28T15:00:36;99249.97;;;25.44;35.44
46291;BME280;32023;44.444;26.006;2022-09-28T15:03:22;99251.97;;;25.44;35.39
46291;BME280;32023;44.444;26.006;2022-09-28T15:05:49;99247.53;;;25.42;35.53
46291;BME280;32023;44.444;26.006;2022-09-28T15:08:19;99253.03;;;25.32;35.73
46291;BME280;32023;44.444;26.006;2022-09-28T15:10:49;99257.72;;;25.17;36.13
46291;BME280;32023;44.444;26.006;2022-09-28T15:13:27;99251.13;;;25.06;36.40
46291;BME280;32023;44.444;26.006;2022-09-28T15:16:22;99252.56;;;24.93;36.65
46291;BME280;32023;44.444;26.006;2022-09-28T15:22:16;99259.47;;;24.69;37.71
46291;BME280;32023;44.444;26.006;2022-09-28T15:24:53;99268.94;;;24.58;37.83
46291;BME280;32023;44.444;26.006;2022-09-28T15:27:23;99273.06;;;24.37;38.29
46291;BME280;32023;44.444;26.006;2022-09-28T15:29:57;99276.47;;;24.24;38.63
46291;BME280;32023;44.444;26.006;2022-09-28T15:32:25;99281.44;;;24.11;39.10
46291;BME280;32023;44.444;26.006;2022-09-28T15:41:35;99276.47;;;23.78;40.14
46291;BME280;32023;44.444;26.006;2022-09-28T15:44:30;99280.63;;;23.65;40.50
46291;BME280;32023;44.444;26.006;2022-09-28T15:50:36;99289.53;;;23.48;40.86
46291;BME280;32023;44.444;26.006;2022-09-28T15:56:14;99283.09;;;23.28;41.73
46291;BME280;32023;44.444;26.006;2022-09-28T15:59:08;99285.69;;;23.18;42.18
46291;BME280;32023;44.444;26.006;2022-09-28T16:01:44;99287.88;;;23.09;42.26
46291;BME280;32023;44.444;26.006;2022-09-28T16:04:34;99293.22;;;22.94;42.88
46291;BME280;32023;44.444;26.006;2022-09-28T16:07:37;99299.41;;;22.84;43.17
46291;BME280;32023;44.444;26.006;2022-09-28T16:10:33;99306.78;;;22.73;43.53
46291;BME280;32023;44.444;26.006;2022-09-28T16:13:17;99304.97;;;22.65;43.99
46291;BME280;32023;44.444;26.006;2022-09-28T16:16:14;99303.59;;;22.59;44.09
46291;BME280;32023;44.444;26.006;2022-09-28T16:19:20;99302.19;;;22.34;44.11
46291;BME280;32023;44.444;26.006;2022-09-28T16:21:57;99307.31;;;22.47;44.29
46291;BME280;32023;44.444;26.006;2022-09-28T16:24:32;99306.81;;;22.42;44.35
46291;BME280;32023;44.444;26.006;2022-09-28T16:33:29;99301.22;;;22.26;44.64
46291;BME280;32023;44.444;26.006;2022-09-28T16:36:02;99300.31;;;22.22;44.87
46291;BME280;32023;44.444;26.006;2022-09-28T16:38:44;99308.19;;;22.17;45.04
46291;BME280;32023;44.444;26.006;2022-09-28T16:41:18;99314.50;;;22.14;45.16
46291;BME280;32023;44.444;26.006;2022-09-28T16:43:46;99328.81;;;22.08;45.33
46291;BME280;32023;44.444;26.006;2022-09-28T16:46:39;99323.03;;;22.01;45.48
46291;BME280;32023;44.444;26.006;2022-09-28T16:49:15;99316.53;;;21.97;45.75
46291;BME280;32023;44.444;26.006;2022-09-28T16:52:10;99322.38;;;21.92;45.98
46291;BME280;32023;44.444;26.006;2022-09-28T16:55:00;99324.97;;;21.85;46.15
46291;BME280;32023;44.444;26.006;2022-09-28T16:58:04;99328.41;;;21.79;46.54
46291;BME280;32023;44.444;26.006;2022-09-28T17:00:35;99323.88;;;21.74;46.66
46291;BME280;32023;44.444;26.006;2022-09-28T17:03:01;99332.09;;;21.67;46.89
46291;BME280;32023;44.444;26.006;2022-09-28T17:05:30;99337.94;;;21.62;47.02
46291;BME280;32023;44.444;26.006;2022-09-28T17:08:02;99332.97;;;21.55;47.51
46291;BME280;32023;44.444;26.006;2022-09-28T17:10:35;99301.19;;;21.36;47.72
46291;BME280;32023;44.444;26.006;2022-09-28T17:13:07;99332.69;;;21.45;48.07
46291;BME280;32023;44.444;26.006;2022-09-28T17:15:36;99324.16;;;21.41;48.35
46291;BME280;32023;44.444;26.006;2022-09-28T17:18:21;99321.25;;;21.38;48.71
46291;BME280;32023;44.444;26.006;2022-09-28T17:21:30;99325.94;;;21.34;48.71
46291;BME280;32023;44.444;26.006;2022-09-28T17:23:57;99329.91;;;21.33;48.66
46291;BME280;32023;44.444;26.006;2022-09-28T17:26:34;99325.72;;;21.27;48.69
46291;BME280;32023;44.444;26.006;2022-09-28T17:29:04;99325.63;;;21.23;48.68
46291;BME280;32023;44.444;26.006;2022-09-28T17:34:59;99332.19;;;21.15;49.07
46291;BME280;32023;44.444;26.006;2022-09-28T17:37:25;99336.28;;;21.18;48.99
46291;BME280;32023;44.444;26.006;2022-09-28T17:39:59;99337.91;;;21.19;49.19
46291;BME280;32023;44.444;26.006;2022-09-28T17:43:01;99345.13;;;21.20;49.16
46291;BME280;32023;44.444;26.006;2022-09-28T17:45:35;99339.28;;;21.25;49.12
46291;BME280;32023;44.444;26.006;2022-09-28T17:48:06;99339.63;;;21.23;49.26
46291;BME280;32023;44.444;26.006;2022-09-28T17:50:49;99340.00;;;21.22;49.37
46291;BME280;32023;44.444;26.006;2022-09-28T17:53:16;99352.03;;;21.22;50.42
46291;BME280;32023;44.444;26.006;2022-09-28T17:55:48;99342.78;;;21.22;50.98
46291;BME280;32023;44.444;26.006;2022-09-28T17:58:21;99345.94;;;21.20;51.41
46291;BME280;32023;44.444;26.006;2022-09-28T18:00:51;99349.34;;;21.13;51.72
46291;BME280;32023;44.444;26.006;2022-09-28T18:03:21;99337.19;;;21.09;51.82
46291;BME280;32023;44.444;26.006;2022-09-28T18:05:49;99338.25;;;21.05;51.77
46291;BME280;32023;44.444;26.006;2022-09-28T18:08:21;99337.81;;;21.03;51.52
46291;BME280;32023;44.444;26.006;2022-09-28T18:10:54;99337.00;;;21.02;51.56
46291;BME280;32023;44.444;26.006;2022-09-28T18:13:22;99336.88;;;20.99;51.59
46291;BME280;32023;44.444;26.006;2022-09-28T18:15:53;99326.41;;;20.96;51.63
46291;BME280;32023;44.444;26.006;2022-09-28T18:18:23;99332.34;;;20.94;51.62
46291;BME280;32023;44.444;26.006;2022-09-28T18:20:50;99328.72;;;20.94;51.88
46291;BME280;32023;44.444;26.006;2022-09-28T18:23:21;99329.53;;;20.94;51.99
46291;BME280;32023;44.444;26.006;2022-09-28T18:25:47;99340.75;;;20.94;52.66
46291;BME280;32023;44.444;26.006;2022-09-28T18:28:14;99343.88;;;20.93;52.85
46291;BME280;32023;44.444;26.006;2022-09-28T18:30:44;99343.22;;;20.84;52.66
46291;BME280;32023;44.444;26.006;2022-09-28T18:33:14;99347.50;;;20.81;52.50
46291;BME280;32023;44.444;26.006;2022-09-28T18:35:53;99346.84;;;20.84;52.28
46291;BME280;32023;44.444;26.006;2022-09-28T18:38:36;99347.28;;;20.86;52.01
46291;BME280;32023;44.444;26.006;2022-09-28T18:41:13;99346.94;;;20.88;52.44
46291;BME280;32023;44.444;26.006;2022-09-28T18:43:52;99343.78;;;20.89;52.99
46291;BME280;32023;44.444;26.006;2022-09-28T18:46:28;99344.59;;;20.90;53.45
46291;BME280;32023;44.444;26.006;2022-09-28T18:49:02;99341.44;;;20.91;54.17
46291;BME280;32023;44.444;26.006;2022-09-28T18:51:29;99337.72;;;20.87;54.84
46291;BME280;32023;44.444;26.006;2022-09-28T18:53:56;99343.56;;;20.82;55.11
46291;BME280;32023;44.444;26.006;2022-09-28T18:56:24;99340.31;;;20.80;55.28
46291;BME280;32023;44.444;26.006;2022-09-28T18:58:57;99344.59;;;20.78;55.32
46291;BME280;32023;44.444;26.006;2022-09-28T19:01:25;99339.72;;;20.75;55.49
46291;BME280;32023;44.444;26.006;2022-09-28T19:03:52;99350.47;;;20.73;55.99
46291;BME280;32023;44.444;26.006;2022-09-28T19:06:21;99346.38;;;20.70;56.16
46291;BME280;32023;44.444;26.006;2022-09-28T19:08:58;99344.28;;;20.67;56.38
46291;BME280;32023;44.444;26.006;2022-09-28T19:11:27;99347.34;;;20.62;56.78
46291;BME280;32023;44.444;26.006;2022-09-28T19:13:58;99359.91;;;20.56;57.08
46291;BME280;32023;44.444;26.006;2022-09-28T19:16:44;99362.47;;;20.49;57.05
46291;BME280;32023;44.444;26.006;2022-09-28T19:19:20;99362.97;;;20.39;56.86
46291;BME280;32023;44.444;26.006;2022-09-28T19:21:47;99378.97;;;20.17;56.68
46291;BME280;32023;44.444;26.006;2022-09-28T19:24:17;99377.91;;;20.10;56.27